createdAt,value
2022-12-14T00:01:35.610Z,12.25
2022-12-14T00:04:02.402Z,12.10
2022-12-14T00:06:32.249Z,12.10
2022-12-14T00:09:01.254Z,12.57
2022-12-14T00:11:28.694Z,12.25
2022-12-14T00:13:57.965Z,12.40
2022-12-14T00:16:26.832Z,12.18
2022-12-14T00:18:55.846Z,12.07
2022-12-14T00:21:23.139Z,11.95
2022-12-14T00:23:51.770Z,11.77
2022-12-14T00:26:21.273Z,12.65
2022-12-14T00:28:49.849Z,13.50
2022-12-14T00:31:17.119Z,12.60
2022-12-14T00:33:44.282Z,12.60
2022-12-14T00:36:12.318Z,11.95
2022-12-14T00:38:39.969Z,12.35
2022-12-14T00:41:07.251Z,11.90
2022-12-14T00:43:33.943Z,12.20
2022-12-14T00:46:00.640Z,12.57
2022-12-14T00:48:28.131Z,12.23
2022-12-14T00:50:55.846Z,12.20
2022-12-14T00:53:24.056Z,12.40
2022-12-14T00:55:51.544Z,13.15
2022-12-14T00:58:20.634Z,12.05
2022-12-14T01:00:48.328Z,12.23
2022-12-14T01:03:15.811Z,11.70
2022-12-14T01:05:49.267Z,11.75
2022-12-14T01:08:16.459Z,11.40
2022-12-14T01:10:43.117Z,11.40
2022-12-14T01:13:11.676Z,11.70
2022-12-14T01:15:38.475Z,12.02
2022-12-14T01:18:05.373Z,12.43
2022-12-14T01:20:32.325Z,12.40
2022-12-14T01:22:59.143Z,12.68
2022-12-14T01:25:26.318Z,12.20
2022-12-14T01:27:53.071Z,11.90
2022-12-14T01:30:19.989Z,12.48
2022-12-14T01:32:47.435Z,11.75
2022-12-14T01:35:14.333Z,11.70
2022-12-14T01:37:41.017Z,10.88
2022-12-14T01:40:08.458Z,12.20
2022-12-14T01:42:36.851Z,12.35
2022-12-14T01:45:05.321Z,12.70
2022-12-14T01:47:42.737Z,11.73
2022-12-14T01:50:30.172Z,12.43
2022-12-14T01:53:01.484Z,12.20
2022-12-14T01:55:34.599Z,11.73
2022-12-14T01:58:07.003Z,12.55
2022-12-14T02:00:34.191Z,11.82
2022-12-14T02:03:33.435Z,11.82
2022-12-14T02:06:12.477Z,12.57
2022-12-14T02:08:41.033Z,12.48
2022-12-14T02:11:07.774Z,12.63
2022-12-14T02:13:38.715Z,13.23
2022-12-14T02:16:05.953Z,12.88
2022-12-14T02:18:33.627Z,11.90
2022-12-14T02:21:51.435Z,12.93
2022-12-14T02:24:26.978Z,13.27
2022-12-14T02:27:04.496Z,12.82
2022-12-14T02:29:46.238Z,12.43
2022-12-14T02:32:30.587Z,12.55
2022-12-14T02:35:04.122Z,13.10
2022-12-14T02:37:49.577Z,12.55
2022-12-14T02:40:41.141Z,12.93
2022-12-14T02:43:32.886Z,12.73
2022-12-14T02:46:08.091Z,13.13
2022-12-14T02:48:40.045Z,13.00
2022-12-14T02:51:11.635Z,12.77
2022-12-14T02:54:20.570Z,13.32
2022-12-14T02:56:53.479Z,12.85
2022-12-14T02:59:21.475Z,12.40
2022-12-14T03:01:51.093Z,13.98
2022-12-14T03:04:18.834Z,13.30
2022-12-14T03:07:03.085Z,13.45
2022-12-14T03:09:31.863Z,12.10
2022-12-14T03:12:07.408Z,12.65
2022-12-14T03:14:40.645Z,12.38
2022-12-14T03:17:19.009Z,12.93
2022-12-14T03:19:56.318Z,13.23
2022-12-14T03:22:31.745Z,12.30
2022-12-14T03:25:05.856Z,13.02
2022-12-14T03:27:40.820Z,12.90
2022-12-14T03:30:12.225Z,12.45
2022-12-14T03:32:45.906Z,12.75
2022-12-14T03:35:32.478Z,13.35
2022-12-14T03:38:17.564Z,12.75
2022-12-14T03:40:56.054Z,12.85
2022-12-14T03:43:43.718Z,12.52
2022-12-14T03:46:31.882Z,12.90
2022-12-14T03:49:36.797Z,12.52
2022-12-14T03:52:12.427Z,13.43
2022-12-14T03:55:04.450Z,13.18
2022-12-14T03:57:44.934Z,13.45
2022-12-14T04:00:16.706Z,14.32
2022-12-14T04:03:01.085Z,13.57
2022-12-14T04:05:49.062Z,13.63
2022-12-14T04:08:32.817Z,13.40
2022-12-14T04:11:21.754Z,13.45
2022-12-14T04:14:18.279Z,14.50
2022-12-14T04:17:05.745Z,13.20
2022-12-14T04:19:49.607Z,13.50
2022-12-14T04:22:21.807Z,14.05
2022-12-14T04:25:44.476Z,14.32
2022-12-14T04:28:35.126Z,14.25
2022-12-14T04:31:07.812Z,14.07
2022-12-14T04:33:48.304Z,14.10
2022-12-14T04:36:28.311Z,14.02
2022-12-14T04:39:04.381Z,14.88
2022-12-14T04:41:37.271Z,14.05
2022-12-14T04:44:09.846Z,13.90
2022-12-14T04:46:40.710Z,14.43
2022-12-14T04:49:49.143Z,13.75
2022-12-14T04:52:27.306Z,14.40
2022-12-14T04:55:01.047Z,14.20
2022-12-14T04:57:35.843Z,13.60
2022-12-14T05:00:03.969Z,13.63
2022-12-14T05:02:40.343Z,14.73
2022-12-14T05:05:16.235Z,15.45
2022-12-14T05:08:01.125Z,14.27
2022-12-14T05:10:35.539Z,14.52
2022-12-14T05:13:08.784Z,14.27
2022-12-14T05:15:48.353Z,14.80
2022-12-14T05:18:15.677Z,14.90
2022-12-14T05:20:42.403Z,14.30
2022-12-14T05:23:09.498Z,16.02
2022-12-14T05:25:36.236Z,14.60
2022-12-14T05:28:03.259Z,14.70
2022-12-14T05:30:30.514Z,14.75
2022-12-14T05:32:58.089Z,14.18
2022-12-14T05:35:24.956Z,14.80
2022-12-14T05:37:51.709Z,14.70
2022-12-14T05:40:18.548Z,16.20
2022-12-14T05:42:49.731Z,14.43
2022-12-14T05:45:19.141Z,15.15
2022-12-14T05:47:46.263Z,14.70
2022-12-14T05:50:16.150Z,15.13
2022-12-14T05:52:42.918Z,16.10
2022-12-14T05:55:09.822Z,15.63
2022-12-14T05:57:36.504Z,14.75
2022-12-14T06:00:04.774Z,14.60
2022-12-14T06:02:31.629Z,15.60
2022-12-14T06:04:58.606Z,14.85
2022-12-14T06:07:28.072Z,16.02
2022-12-14T06:09:55.187Z,14.93
2022-12-14T06:12:22.041Z,14.82
2022-12-14T06:14:58.007Z,15.20
2022-12-14T06:17:37.547Z,15.60
2022-12-14T06:20:04.780Z,14.70
2022-12-14T06:22:31.425Z,15.45
2022-12-14T06:24:58.165Z,14.70
2022-12-14T06:27:24.819Z,14.80
2022-12-14T06:29:51.474Z,14.50
2022-12-14T06:32:18.157Z,14.60
2022-12-14T06:34:45.764Z,14.05
2022-12-14T06:37:13.362Z,15.60
2022-12-14T06:39:40.031Z,16.23
2022-12-14T06:42:06.821Z,17.95
2022-12-14T06:44:33.495Z,17.73
2022-12-14T06:47:00.625Z,16.90
2022-12-14T06:49:27.502Z,18.75
2022-12-14T06:51:54.284Z,15.32
2022-12-14T06:54:21.301Z,17.17
2022-12-14T06:56:48.479Z,15.00
2022-12-14T06:59:16.970Z,16.17
2022-12-14T07:01:44.129Z,16.98
2022-12-14T07:04:11.127Z,16.23
2022-12-14T07:06:40.326Z,16.23
2022-12-14T07:09:11.685Z,17.05
2022-12-14T07:11:38.472Z,17.13
2022-12-14T07:14:07.012Z,18.27
2022-12-14T07:16:35.287Z,17.38
2022-12-14T07:19:02.038Z,19.63
2022-12-14T07:21:29.330Z,17.38
2022-12-14T07:23:59.671Z,18.27
2022-12-14T07:26:27.936Z,16.35
2022-12-14T07:28:55.038Z,18.73
2022-12-14T07:31:23.943Z,16.83
2022-12-14T07:33:56.212Z,16.52
2022-12-14T07:36:24.959Z,16.27
2022-12-14T07:38:52.890Z,21.10
2022-12-14T07:41:30.766Z,18.70
2022-12-14T07:43:59.898Z,17.23
2022-12-14T07:46:28.758Z,17.63
2022-12-14T07:48:57.627Z,16.70
2022-12-14T07:51:29.880Z,17.90
2022-12-14T07:53:57.134Z,18.92
2022-12-14T07:56:27.137Z,16.88
2022-12-14T07:58:58.933Z,17.30
2022-12-14T08:01:34.358Z,16.65
2022-12-14T08:04:05.013Z,18.92
2022-12-14T08:06:32.436Z,15.90
2022-12-14T08:09:00.391Z,17.90
2022-12-14T08:11:27.834Z,17.02
2022-12-14T08:13:55.063Z,17.17
2022-12-14T08:16:22.603Z,16.48
2022-12-14T08:18:50.031Z,17.85
2022-12-14T08:21:20.880Z,18.95
2022-12-14T08:23:49.007Z,16.00
2022-12-14T08:26:16.332Z,17.52
2022-12-14T08:28:43.111Z,16.80
2022-12-14T08:31:12.685Z,16.95
2022-12-14T08:33:41.647Z,18.25
2022-12-14T08:36:09.934Z,17.00
2022-12-14T08:39:02.689Z,16.58
2022-12-14T08:41:30.340Z,15.85
2022-12-14T08:44:07.689Z,17.60
2022-12-14T08:46:44.681Z,16.75
2022-12-14T08:52:06.518Z,16.83
2022-12-14T08:54:33.458Z,17.60
2022-12-14T08:57:01.505Z,15.75
2022-12-14T08:59:59.311Z,16.02
2022-12-14T09:02:15.598Z,16.40
2022-12-14T09:04:42.830Z,15.98
2022-12-14T09:07:09.583Z,17.73
2022-12-14T09:09:37.349Z,16.42
2022-12-14T09:12:07.529Z,17.95
2022-12-14T09:14:35.354Z,18.30
2022-12-14T09:17:03.211Z,17.35
2022-12-14T09:19:30.152Z,17.45
2022-12-14T09:21:59.944Z,17.13
2022-12-14T09:24:28.388Z,17.20
2022-12-14T09:26:55.212Z,19.08
2022-12-14T09:29:23.601Z,17.40
2022-12-14T09:31:50.998Z,19.17
2022-12-14T09:34:21.951Z,20.15
2022-12-14T09:36:48.944Z,18.40
2022-12-14T09:39:15.976Z,17.02
2022-12-14T09:42:13.603Z,15.85
2022-12-14T09:44:49.527Z,16.67
2022-12-14T09:47:29.539Z,15.38
2022-12-14T09:50:02.732Z,15.68
2022-12-14T09:52:47.160Z,16.13
2022-12-14T09:55:20.540Z,16.20
2022-12-14T09:57:54.109Z,14.40
2022-12-14T10:00:21.271Z,14.40
2022-12-14T10:03:20.762Z,15.57
2022-12-14T10:06:45.864Z,15.57
2022-12-14T10:09:24.232Z,15.98
2022-12-14T10:12:07.571Z,15.25
2022-12-14T10:15:09.138Z,15.32
2022-12-14T10:18:01.427Z,16.00
2022-12-14T10:20:42.442Z,15.40
2022-12-14T10:23:21.014Z,16.38
2022-12-14T10:25:54.336Z,15.57
2022-12-14T10:28:38.865Z,14.65
2022-12-14T10:31:12.866Z,14.43
2022-12-14T10:33:44.825Z,15.18
2022-12-14T10:36:19.715Z,14.25
2022-12-14T10:38:58.526Z,15.40
2022-12-14T10:41:43.083Z,14.98
2022-12-14T10:44:50.189Z,14.15
2022-12-14T10:47:39.035Z,15.20
2022-12-14T10:50:23.405Z,13.80
2022-12-14T10:52:53.644Z,13.35
2022-12-14T10:55:42.546Z,11.80
2022-12-14T10:58:11.576Z,13.18
2022-12-14T11:00:38.735Z,12.88
2022-12-14T11:03:14.543Z,12.63
2022-12-14T11:05:50.101Z,12.80
2022-12-14T11:08:41.999Z,13.45
2022-12-14T11:11:18.700Z,12.48
2022-12-14T11:13:56.231Z,13.70
2022-12-14T11:16:36.763Z,13.35
2022-12-14T11:19:06.299Z,15.23
2022-12-14T11:21:38.991Z,13.23
2022-12-14T11:24:06.697Z,15.02
2022-12-14T11:26:37.110Z,13.80
2022-12-14T11:29:06.789Z,13.77
2022-12-14T11:31:45.287Z,12.85
2022-12-14T11:34:23.949Z,14.15
2022-12-14T11:36:50.848Z,13.93
2022-12-14T11:39:24.771Z,14.93
2022-12-14T11:42:04.302Z,13.98
2022-12-14T11:44:36.653Z,15.88
2022-12-14T11:47:11.317Z,14.30
2022-12-14T11:49:37.974Z,15.10
2022-12-14T11:52:07.046Z,14.57
2022-12-14T11:54:42.996Z,15.55
2022-12-14T11:57:22.743Z,15.38
2022-12-14T11:59:56.399Z,14.90
2022-12-14T12:02:39.738Z,15.40
2022-12-14T12:05:19.711Z,15.45
2022-12-14T12:07:49.147Z,15.50
2022-12-14T12:10:38.836Z,14.52
2022-12-14T12:13:15.454Z,14.90
2022-12-14T12:15:48.087Z,15.15
2022-12-14T12:18:27.342Z,14.63
2022-12-14T12:21:01.406Z,14.98
2022-12-14T12:23:43.200Z,13.93
2022-12-14T12:26:32.661Z,15.93
2022-12-14T12:29:36.557Z,14.52
2022-12-14T12:32:33.741Z,14.85
2022-12-14T12:35:14.367Z,14.80
2022-12-14T12:37:49.987Z,16.25
2022-12-14T12:40:22.124Z,14.88
2022-12-14T12:43:26.287Z,15.15
2022-12-14T12:45:58.329Z,15.05
2022-12-14T12:48:46.820Z,14.63
2022-12-14T12:51:24.889Z,15.65
2022-12-14T12:54:00.596Z,16.00
2022-12-14T12:56:37.475Z,16.48
2022-12-14T12:59:05.824Z,15.10
2022-12-14T13:01:40.476Z,16.60
2022-12-14T13:04:12.782Z,16.35
2022-12-14T13:06:50.168Z,15.52
2022-12-14T13:09:40.670Z,16.02
2022-12-14T13:12:15.036Z,15.88
2022-12-14T13:14:49.913Z,15.90
2022-12-14T13:17:43.492Z,16.33
2022-12-14T13:20:21.597Z,15.88
2022-12-14T13:22:49.633Z,16.80
2022-12-14T13:25:20.632Z,16.50
2022-12-14T13:28:38.690Z,17.33
2022-12-14T13:31:40.303Z,17.65
2022-12-14T13:34:23.066Z,15.93
2022-12-14T13:37:25.141Z,16.85
2022-12-14T13:40:21.463Z,17.45
2022-12-14T13:42:57.385Z,18.35
2022-12-14T13:45:30.354Z,18.63
2022-12-14T13:47:58.536Z,16.52
2022-12-14T13:50:54.375Z,18.75
2022-12-14T13:53:40.408Z,19.45
2022-12-14T13:56:07.844Z,20.75
2022-12-14T13:58:40.864Z,20.02
2022-12-14T14:01:22.895Z,21.25
2022-12-14T14:04:10.942Z,21.75
2022-12-14T14:06:41.987Z,22.95
2022-12-14T14:09:30.213Z,23.63
2022-12-14T14:12:03.961Z,24.48
2022-12-14T14:14:42.248Z,25.48
2022-12-14T14:17:17.104Z,22.75
2022-12-14T14:19:49.378Z,22.38
2022-12-14T14:22:25.766Z,21.55
2022-12-14T14:25:09.423Z,21.40
2022-12-14T14:27:50.023Z,21.70
2022-12-14T14:30:28.966Z,21.75
2022-12-14T14:33:07.515Z,22.23
2022-12-14T14:35:40.260Z,21.23
2022-12-14T14:38:22.392Z,21.65
2022-12-14T14:41:15.399Z,22.17
2022-12-14T14:43:49.741Z,20.02
2022-12-14T14:46:22.469Z,18.92
2022-12-14T14:48:57.004Z,21.30
2022-12-14T14:51:26.533Z,22.00
2022-12-14T14:54:56.203Z,21.02
2022-12-14T14:57:44.437Z,23.65
2022-12-14T15:00:12.429Z,21.30
2022-12-14T15:02:43.244Z,21.45
2022-12-14T15:08:40.726Z,19.83
2022-12-14T15:11:20.644Z,23.08
2022-12-14T15:13:54.394Z,21.48
2022-12-14T15:16:42.002Z,18.55
2022-12-14T15:19:28.222Z,20.35
2022-12-14T15:22:02.957Z,20.63
2022-12-14T15:24:36.750Z,20.20
2022-12-14T15:27:22.637Z,20.40
2022-12-14T15:29:49.725Z,20.45
2022-12-14T15:32:18.224Z,19.10
2022-12-14T15:35:19.363Z,22.15
2022-12-14T15:37:54.746Z,21.25
2022-12-14T15:40:26.942Z,21.35
2022-12-14T15:42:56.960Z,21.05
2022-12-14T15:45:31.066Z,19.92
2022-12-14T15:48:13.480Z,22.13
2022-12-14T15:50:43.615Z,20.15
2022-12-14T15:53:18.145Z,19.20
2022-12-14T15:55:56.341Z,21.35
2022-12-14T15:58:34.946Z,20.40
2022-12-14T16:01:21.738Z,19.55
2022-12-14T16:03:55.157Z,20.30
2022-12-14T16:06:24.606Z,20.30
2022-12-14T16:08:57.044Z,19.55
2022-12-14T16:11:31.568Z,21.42
2022-12-14T16:14:02.203Z,20.00
2022-12-14T16:16:29.282Z,21.80
2022-12-14T16:19:08.886Z,21.58
2022-12-14T16:21:41.351Z,21.25
2022-12-14T16:24:23.463Z,20.05
2022-12-14T16:26:59.173Z,21.85
2022-12-14T16:29:29.294Z,21.20
2022-12-14T16:32:05.910Z,26.60
2022-12-14T16:34:33.432Z,23.70
2022-12-14T16:37:31.746Z,27.02
2022-12-14T16:39:53.218Z,21.10
2022-12-14T16:42:32.148Z,26.63
2022-12-14T16:44:58.847Z,22.83
2022-12-14T16:47:34.797Z,26.73
2022-12-14T16:50:01.926Z,24.92
2022-12-14T16:52:34.339Z,24.25
2022-12-14T16:55:09.727Z,24.58
2022-12-14T16:57:41.318Z,25.70
2022-12-14T17:00:32.208Z,27.00
2022-12-14T17:03:07.280Z,24.92
2022-12-14T17:05:40.715Z,25.02
2022-12-14T17:08:08.536Z,23.63
2022-12-14T17:10:35.549Z,25.67
2022-12-14T17:13:03.435Z,22.38
2022-12-14T17:15:33.235Z,20.27
2022-12-14T17:18:03.915Z,24.10
2022-12-14T17:20:36.560Z,24.67
2022-12-14T17:23:04.535Z,22.20
2022-12-14T17:25:34.552Z,22.67
2022-12-14T17:28:01.457Z,26.50
2022-12-14T17:30:28.788Z,24.92
2022-12-14T17:32:55.988Z,24.65
2022-12-14T17:35:28.617Z,26.85
2022-12-14T17:37:56.149Z,29.48
2022-12-14T17:40:23.039Z,23.85
2022-12-14T17:42:52.150Z,27.25
2022-12-14T17:45:24.958Z,26.77
2022-12-14T17:47:52.038Z,28.35
2022-12-14T17:50:19.533Z,28.75
2022-12-14T17:52:47.231Z,30.15
2022-12-14T17:55:22.836Z,30.88
2022-12-14T17:57:50.293Z,41.08
2022-12-14T18:00:47.223Z,41.38
2022-12-14T18:03:16.273Z,35.45
2022-12-14T18:05:48.676Z,30.50
2022-12-14T18:08:17.308Z,27.80
2022-12-14T18:10:45.119Z,31.42
2022-12-14T18:13:12.910Z,31.98
2022-12-14T18:15:50.946Z,29.00
2022-12-14T18:18:20.026Z,29.52
2022-12-14T18:20:55.272Z,36.25
2022-12-14T18:23:22.519Z,32.72
2022-12-14T18:25:52.723Z,30.52
2022-12-14T18:28:20.138Z,31.63
2022-12-14T18:30:50.982Z,34.45
2022-12-14T18:33:20.263Z,33.08
2022-12-14T18:35:48.572Z,31.75
2022-12-14T18:38:15.831Z,33.63
2022-12-14T18:40:49.700Z,30.40
2022-12-14T18:43:23.598Z,31.50
2022-12-14T18:45:52.187Z,29.83
2022-12-14T18:48:19.257Z,29.08
2022-12-14T18:50:46.282Z,28.60
2022-12-14T18:53:18.797Z,27.52
2022-12-14T18:55:45.844Z,28.30
2022-12-14T18:58:19.716Z,27.77
2022-12-14T19:00:47.658Z,29.13
2022-12-14T19:03:17.269Z,28.00
2022-12-14T19:05:45.150Z,28.95
2022-12-14T19:08:13.033Z,29.23
2022-12-14T19:10:43.395Z,31.50
2022-12-14T19:13:25.736Z,30.00
2022-12-14T19:15:54.309Z,29.50
2022-12-14T19:18:21.291Z,27.73
2022-12-14T19:20:49.508Z,25.58
2022-12-14T19:23:18.359Z,27.50
2022-12-14T19:25:46.070Z,26.08
2022-12-14T19:28:32.085Z,25.45
2022-12-14T19:31:00.488Z,27.08
2022-12-14T19:33:28.058Z,25.70
2022-12-14T19:35:55.327Z,24.38
2022-12-14T19:38:23.214Z,23.35
2022-12-14T19:41:05.531Z,25.80
2022-12-14T19:43:33.264Z,22.77
2022-12-14T19:46:00.492Z,23.27
2022-12-14T19:48:27.235Z,24.27
2022-12-14T19:50:54.125Z,25.88
2022-12-14T19:53:27.522Z,22.45
2022-12-14T19:55:54.467Z,24.60
2022-12-14T19:58:25.305Z,26.80
2022-12-14T20:00:52.663Z,22.10
2022-12-14T20:05:59.280Z,24.15
2022-12-14T20:08:27.763Z,24.77
2022-12-14T20:10:57.573Z,24.48
2022-12-14T20:13:26.296Z,23.88
2022-12-14T20:15:58.163Z,21.98
2022-12-14T20:18:26.405Z,19.38
2022-12-14T20:20:55.606Z,19.65
2022-12-14T20:23:22.351Z,19.10
2022-12-14T20:25:49.373Z,17.95
2022-12-14T20:28:16.123Z,18.73
2022-12-14T20:30:47.559Z,19.40
2022-12-14T20:33:14.379Z,17.58
2022-12-14T20:35:41.153Z,17.77
2022-12-14T20:38:08.410Z,17.48
2022-12-14T20:40:39.114Z,17.83
2022-12-14T20:43:07.303Z,17.00
2022-12-14T20:45:42.054Z,17.75
2022-12-14T20:48:09.012Z,17.90
2022-12-14T20:50:41.599Z,16.83
2022-12-14T20:53:08.396Z,18.52
2022-12-14T20:55:36.163Z,18.90
2022-12-14T20:58:03.210Z,19.15
2022-12-14T21:00:30.229Z,18.02
2022-12-14T21:02:57.234Z,18.80
2022-12-14T21:05:24.083Z,18.63
2022-12-14T21:07:51.923Z,19.08
2022-12-14T21:10:18.894Z,18.00
2022-12-14T21:12:48.163Z,19.02
2022-12-14T21:15:15.025Z,19.67
2022-12-14T21:17:41.857Z,19.63
2022-12-14T21:20:11.315Z,20.13
2022-12-14T21:22:38.452Z,19.08
2022-12-14T21:25:06.925Z,19.33
2022-12-14T21:27:38.081Z,19.25
2022-12-14T21:30:07.589Z,19.40
2022-12-14T21:32:38.586Z,18.60
2022-12-14T21:35:05.795Z,18.98
2022-12-14T21:37:32.508Z,20.02
2022-12-14T21:40:00.156Z,19.05
2022-12-14T21:42:27.054Z,18.48
2022-12-14T21:44:54.385Z,20.85
2022-12-14T21:47:24.212Z,19.40
2022-12-14T21:49:51.406Z,19.85
2022-12-14T21:52:22.017Z,20.02
2022-12-14T21:54:48.814Z,20.83
2022-12-14T21:57:50.375Z,20.15
2022-12-14T22:00:18.044Z,20.73
2022-12-14T22:02:45.004Z,21.38
2022-12-14T22:05:12.054Z,20.77
2022-12-14T22:07:38.892Z,23.90
2022-12-14T22:10:06.024Z,22.35
2022-12-14T22:12:32.899Z,22.98
2022-12-14T22:14:59.673Z,20.45
2022-12-14T22:17:26.347Z,21.63
2022-12-14T22:19:55.054Z,22.80
2022-12-14T22:22:22.100Z,22.67
2022-12-14T22:24:49.799Z,24.48
2022-12-14T22:27:17.014Z,23.10
2022-12-14T22:29:43.681Z,20.92
2022-12-14T22:32:12.262Z,22.23
2022-12-14T22:34:39.291Z,22.25
2022-12-14T22:37:06.110Z,19.83
2022-12-14T22:39:32.792Z,20.85
2022-12-14T22:41:59.713Z,21.98
2022-12-14T22:44:26.456Z,21.00
2022-12-14T22:46:53.131Z,24.00
2022-12-14T22:49:20.435Z,26.40
2022-12-14T22:51:47.184Z,25.98
2022-12-14T22:54:25.944Z,25.98
2022-12-14T22:57:07.082Z,26.60
2022-12-14T22:59:49.277Z,25.38
2022-12-14T23:02:16.189Z,27.33
2022-12-14T23:04:43.107Z,27.40
2022-12-14T23:07:10.691Z,25.02
2022-12-14T23:09:55.781Z,25.17
2022-12-14T23:12:41.451Z,27.85
2022-12-14T23:15:26.962Z,25.55
2022-12-14T23:18:23.340Z,28.60
2022-12-14T23:21:08.854Z,27.05
2022-12-14T23:23:56.891Z,26.15
2022-12-14T23:26:42.519Z,27.15
2022-12-14T23:29:27.962Z,27.27
2022-12-14T23:32:13.631Z,25.58
2022-12-14T23:34:58.964Z,26.40
2022-12-14T23:37:44.356Z,25.33
2022-12-14T23:40:29.904Z,26.13
2022-12-14T23:43:15.339Z,26.63
2022-12-14T23:46:01.547Z,27.55
2022-12-14T23:48:47.096Z,26.67
2022-12-14T23:51:32.522Z,27.63
2022-12-14T23:54:18.131Z,26.27
2022-12-14T23:57:03.533Z,25.40
2022-12-14T23:59:49.686Z,27.08
